createdAt,value
2018-08-31T00:00:13.773Z,5.30
2018-08-31T00:02:46.723Z,5.45
2018-08-31T00:07:29.441Z,4.80
2018-08-31T00:12:15.120Z,5.13
2018-08-31T00:14:43.638Z,5.27
2018-08-31T00:17:12.102Z,5.53
2018-08-31T00:19:40.806Z,6.03
2018-08-31T00:22:09.318Z,5.33
2018-08-31T00:24:56.161Z,5.00
2018-08-31T00:27:36.194Z,5.07
2018-08-31T00:30:20.896Z,4.90
2018-08-31T00:33:10.008Z,5.20
2018-08-31T00:36:51.372Z,5.17
2018-08-31T00:39:46.001Z,5.23
2018-08-31T00:44:31.082Z,4.87
2018-08-31T00:46:59.689Z,4.50
2018-08-31T00:49:33.334Z,5.15
2018-08-31T00:52:02.710Z,4.30
2018-08-31T00:54:31.207Z,4.00
2018-08-31T00:56:59.846Z,4.50
2018-08-31T00:59:28.537Z,4.47
2018-08-31T01:01:56.985Z,4.53
2018-08-31T01:04:25.831Z,4.70
2018-08-31T01:06:54.280Z,5.03
2018-08-31T01:09:23.718Z,4.05
2018-08-31T01:11:52.241Z,4.10
2018-08-31T01:14:20.796Z,4.23
2018-08-31T01:16:49.330Z,4.30
2018-08-31T01:19:17.788Z,4.20
2018-08-31T01:21:46.268Z,4.30
2018-08-31T01:24:14.772Z,3.93
2018-08-31T01:26:43.235Z,3.90
2018-08-31T01:29:11.716Z,3.87
2018-08-31T01:31:41.341Z,3.57
2018-08-31T01:34:09.805Z,3.80
2018-08-31T01:36:38.277Z,3.90
2018-08-31T01:39:07.499Z,3.70
2018-08-31T01:41:36.144Z,3.57
2018-08-31T01:44:04.656Z,3.17
2018-08-31T01:46:33.394Z,3.40
2018-08-31T01:49:01.844Z,3.30
2018-08-31T01:51:30.464Z,3.57
2018-08-31T01:53:58.990Z,3.60
2018-08-31T01:56:31.776Z,3.77
2018-08-31T01:59:02.204Z,3.83
2018-08-31T02:01:33.038Z,2.97
2018-08-31T02:04:04.642Z,3.60
2018-08-31T02:06:36.846Z,3.60
2018-08-31T02:09:13.460Z,3.40
2018-08-31T02:11:49.783Z,3.50
2018-08-31T02:14:18.487Z,3.30
2018-08-31T02:16:49.200Z,2.83
2018-08-31T02:19:18.864Z,3.60
2018-08-31T02:21:47.534Z,3.53
2018-08-31T02:24:17.872Z,3.33
2018-08-31T02:26:47.646Z,3.10
2018-08-31T02:29:17.164Z,3.23
2018-08-31T02:31:45.892Z,3.53
2018-08-31T02:34:14.588Z,3.33
2018-08-31T02:36:43.972Z,3.07
2018-08-31T02:39:12.868Z,3.50
2018-08-31T02:41:42.492Z,3.87
2018-08-31T02:44:11.592Z,3.23
2018-08-31T02:46:40.346Z,3.27
2018-08-31T02:49:09.092Z,3.50
2018-08-31T02:51:37.944Z,4.10
2018-08-31T02:54:06.640Z,3.90
2018-08-31T02:56:35.430Z,3.80
2018-08-31T02:59:04.078Z,3.58
2018-08-31T03:04:26.502Z,3.30
2018-08-31T03:06:55.278Z,2.93
2018-08-31T03:09:24.342Z,3.07
2018-08-31T03:11:53.220Z,3.27
2018-08-31T03:14:22.152Z,3.80
2018-08-31T03:16:50.889Z,3.57
2018-08-31T03:19:19.684Z,3.47
2018-08-31T03:21:48.411Z,3.23
2018-08-31T03:24:18.537Z,3.80
2018-08-31T03:26:47.453Z,3.50
2018-08-31T03:29:16.276Z,3.67
2018-08-31T03:31:45.674Z,3.00
2018-08-31T03:34:14.444Z,3.33
2018-08-31T03:36:43.118Z,3.17
2018-08-31T03:39:11.945Z,3.57
2018-08-31T03:44:34.865Z,3.90
2018-08-31T03:47:04.360Z,3.70
2018-08-31T03:52:39.976Z,4.90
2018-08-31T03:55:09.702Z,5.27
2018-08-31T03:57:40.668Z,6.20
2018-08-31T04:00:10.423Z,6.50
2018-08-31T04:02:39.217Z,6.43
2018-08-31T04:05:13.027Z,5.03
2018-08-31T04:07:41.913Z,4.30
2018-08-31T04:10:10.696Z,3.50
2018-08-31T04:12:39.547Z,4.50
2018-08-31T04:15:10.205Z,4.00
2018-08-31T04:17:39.063Z,5.07
2018-08-31T04:20:08.976Z,5.10
2018-08-31T04:22:37.749Z,3.50
2018-08-31T04:25:06.499Z,3.10
2018-08-31T04:27:35.708Z,3.37
2018-08-31T04:30:05.077Z,3.13
2018-08-31T04:32:34.000Z,3.50
2018-08-31T04:35:02.742Z,3.53
2018-08-31T04:37:31.570Z,4.30
2018-08-31T04:40:00.340Z,4.37
2018-08-31T04:42:29.185Z,5.03
2018-08-31T04:44:58.065Z,3.47
2018-08-31T04:47:27.008Z,3.17
2018-08-31T04:49:56.488Z,3.80
2018-08-31T04:52:26.128Z,5.37
2018-08-31T04:54:55.076Z,4.87
2018-08-31T04:57:24.022Z,3.47
2018-08-31T04:59:53.098Z,3.67
2018-08-31T05:02:21.817Z,3.77
2018-08-31T05:04:50.628Z,4.20
2018-08-31T05:07:20.544Z,3.27
2018-08-31T05:10:03.581Z,4.10
2018-08-31T05:12:32.991Z,4.13
2018-08-31T05:15:01.632Z,3.70
2018-08-31T05:17:30.487Z,5.40
2018-08-31T05:20:02.186Z,3.67
2018-08-31T05:22:31.831Z,3.83
2018-08-31T05:25:00.488Z,3.70
2018-08-31T05:27:29.028Z,3.33
2018-08-31T05:29:57.570Z,3.70
2018-08-31T05:32:26.196Z,3.83
2018-08-31T05:34:54.716Z,3.83
2018-08-31T05:37:23.258Z,3.80
2018-08-31T05:39:51.742Z,3.93
2018-08-31T05:42:20.540Z,3.40
2018-08-31T05:44:50.429Z,3.70
2018-08-31T05:47:18.920Z,3.50
2018-08-31T05:49:47.515Z,4.17
2018-08-31T05:52:16.048Z,3.97
2018-08-31T05:54:44.566Z,4.07
2018-08-31T05:57:13.029Z,4.77
2018-08-31T05:59:41.528Z,4.30
2018-08-31T06:02:10.090Z,3.73
2018-08-31T06:04:38.532Z,3.40
2018-08-31T06:07:07.072Z,3.83
2018-08-31T06:09:40.750Z,4.53
2018-08-31T06:12:09.300Z,4.70
2018-08-31T06:14:37.857Z,3.43
2018-08-31T06:17:06.413Z,3.60
2018-08-31T06:19:34.897Z,5.20
2018-08-31T06:22:03.351Z,4.40
2018-08-31T06:24:31.946Z,3.07
2018-08-31T06:27:00.444Z,3.00
2018-08-31T06:29:28.919Z,3.17
2018-08-31T06:31:57.411Z,2.90
2018-08-31T06:34:25.835Z,3.10
2018-08-31T06:36:54.379Z,3.80
2018-08-31T06:39:22.847Z,3.17
2018-08-31T06:41:51.415Z,3.80
2018-08-31T06:44:19.889Z,3.47
2018-08-31T06:46:48.505Z,3.17
2018-08-31T06:49:17.071Z,3.37
2018-08-31T06:51:45.640Z,3.13
2018-08-31T06:54:14.241Z,3.50
2018-08-31T06:56:42.802Z,3.67
2018-08-31T06:59:11.408Z,3.87
2018-08-31T07:01:39.979Z,3.43
2018-08-31T07:04:08.573Z,3.60
2018-08-31T07:06:37.268Z,3.50
2018-08-31T07:09:09.477Z,3.53
2018-08-31T07:11:38.051Z,3.70
2018-08-31T07:14:06.983Z,3.23
2018-08-31T07:16:35.479Z,2.60
2018-08-31T07:19:04.465Z,3.30
2018-08-31T07:21:33.020Z,3.43
2018-08-31T07:24:01.484Z,3.37
2018-08-31T07:26:30.168Z,3.10
2018-08-31T07:28:58.585Z,2.90
2018-08-31T07:31:27.145Z,3.67
2018-08-31T07:33:56.014Z,2.90
2018-08-31T07:36:24.532Z,3.40
2018-08-31T07:38:52.987Z,2.83
2018-08-31T07:41:21.617Z,3.17
2018-08-31T07:43:50.189Z,3.47
2018-08-31T07:46:18.743Z,4.27
2018-08-31T07:48:47.225Z,3.23
2018-08-31T07:51:20.724Z,3.77
2018-08-31T07:53:49.158Z,3.83
2018-08-31T07:56:17.734Z,3.37
2018-08-31T07:58:46.185Z,3.60
2018-08-31T08:01:14.764Z,3.07
2018-08-31T08:03:43.211Z,3.05
2018-08-31T08:06:11.770Z,3.03
2018-08-31T08:08:40.414Z,2.80
2018-08-31T08:11:09.056Z,2.70
2018-08-31T08:13:37.851Z,2.70
2018-08-31T08:16:06.791Z,2.47
2018-08-31T08:18:35.677Z,3.35
2018-08-31T08:21:05.557Z,2.67
2018-08-31T08:23:37.115Z,2.55
2018-08-31T08:26:06.097Z,2.83
2018-08-31T08:28:34.648Z,2.70
2018-08-31T08:31:03.056Z,2.73
2018-08-31T08:33:31.473Z,2.43
2018-08-31T08:36:00.272Z,2.43
2018-08-31T08:38:28.888Z,2.67
2018-08-31T08:40:57.388Z,2.53
2018-08-31T08:43:25.797Z,2.30
2018-08-31T08:45:54.558Z,2.22
2018-08-31T08:48:23.267Z,2.77
2018-08-31T08:50:57.052Z,3.02
2018-08-31T08:53:25.758Z,2.92
2018-08-31T08:55:54.443Z,2.40
2018-08-31T08:58:23.296Z,2.83
2018-08-31T09:00:52.092Z,3.03
2018-08-31T09:03:20.724Z,2.40
2018-08-31T09:05:49.572Z,2.45
2018-08-31T09:08:18.281Z,2.50
2018-08-31T09:10:46.993Z,2.67
2018-08-31T09:13:15.824Z,3.42
2018-08-31T09:15:44.641Z,2.20
2018-08-31T09:18:13.349Z,2.50
2018-08-31T09:20:42.287Z,2.90
2018-08-31T09:23:11.352Z,2.25
2018-08-31T09:25:40.721Z,2.62
2018-08-31T09:28:11.086Z,2.60
2018-08-31T09:30:46.421Z,2.37
2018-08-31T09:33:18.245Z,2.52
2018-08-31T09:35:47.394Z,2.27
2018-08-31T09:38:17.457Z,2.12
2018-08-31T09:40:45.931Z,2.62
2018-08-31T09:43:14.703Z,2.27
2018-08-31T09:45:44.307Z,2.37
2018-08-31T09:48:14.229Z,2.47
2018-08-31T09:50:43.183Z,2.42
2018-08-31T09:53:12.933Z,2.05
2018-08-31T09:55:43.762Z,2.50
2018-08-31T09:58:12.444Z,2.35
2018-08-31T10:00:46.297Z,3.02
2018-08-31T10:03:19.990Z,2.30
2018-08-31T10:05:49.465Z,2.12
2018-08-31T10:08:18.297Z,1.92
2018-08-31T10:10:47.777Z,2.50
2018-08-31T10:13:16.955Z,2.15
2018-08-31T10:15:46.053Z,2.10
2018-08-31T10:18:15.273Z,2.00
2018-08-31T10:20:44.015Z,2.00
2018-08-31T10:23:13.549Z,2.40
2018-08-31T10:25:42.961Z,2.00
2018-08-31T10:28:12.104Z,2.35
2018-08-31T10:30:40.994Z,2.40
2018-08-31T10:33:09.971Z,2.65
2018-08-31T10:35:38.731Z,2.50
2018-08-31T10:38:07.595Z,2.10
2018-08-31T10:40:36.511Z,2.30
2018-08-31T10:43:05.466Z,2.12
2018-08-31T10:45:34.244Z,2.12
2018-08-31T10:48:03.079Z,2.15
2018-08-31T10:50:31.501Z,1.98
2018-08-31T10:53:00.408Z,2.05
2018-08-31T10:55:29.684Z,2.10
2018-08-31T10:57:58.128Z,2.10
2018-08-31T11:00:27.113Z,2.33
2018-08-31T11:02:56.151Z,2.05
2018-08-31T11:05:24.729Z,2.20
2018-08-31T11:07:53.441Z,2.20
2018-08-31T11:10:22.722Z,2.47
2018-08-31T11:12:52.364Z,2.20
2018-08-31T11:15:21.001Z,1.92
2018-08-31T11:17:51.973Z,2.30
2018-08-31T11:20:20.962Z,2.22
2018-08-31T11:22:49.646Z,2.30
2018-08-31T11:25:18.164Z,2.60
2018-08-31T11:27:47.353Z,2.20
2018-08-31T11:30:16.627Z,2.52
2018-08-31T11:32:45.305Z,2.40
2018-08-31T11:35:13.923Z,2.62
2018-08-31T11:37:42.778Z,2.50
2018-08-31T11:40:16.411Z,2.40
2018-08-31T11:42:44.937Z,2.40
2018-08-31T11:45:13.601Z,2.52
2018-08-31T11:47:42.163Z,2.05
2018-08-31T11:50:10.731Z,2.58
2018-08-31T11:52:39.915Z,2.00
2018-08-31T11:55:08.592Z,2.30
2018-08-31T11:57:37.005Z,2.20
2018-08-31T12:00:05.851Z,2.65
2018-08-31T12:02:34.664Z,3.50
2018-08-31T12:05:03.166Z,3.80
2018-08-31T12:07:32.529Z,2.62
2018-08-31T12:10:20.573Z,2.03
2018-08-31T12:12:49.086Z,2.05
2018-08-31T12:15:18.061Z,2.10
2018-08-31T12:17:46.627Z,2.30
2018-08-31T12:23:07.765Z,2.17
2018-08-31T12:25:36.334Z,3.55
2018-08-31T12:28:06.253Z,2.60
2018-08-31T12:30:35.824Z,3.02
2018-08-31T12:33:04.675Z,3.80
2018-08-31T12:35:33.635Z,2.62
2018-08-31T12:38:02.431Z,2.30
2018-08-31T12:40:31.175Z,2.58
2018-08-31T12:42:59.915Z,3.10
2018-08-31T12:45:28.513Z,3.20
2018-08-31T12:47:57.023Z,2.10
2018-08-31T12:50:25.771Z,1.95
2018-08-31T12:52:54.258Z,2.70
2018-08-31T12:55:22.742Z,3.58
2018-08-31T12:57:51.315Z,1.90
2018-08-31T13:00:20.039Z,1.90
2018-08-31T13:02:49.659Z,2.25
2018-08-31T13:05:18.295Z,2.20
2018-08-31T13:07:47.217Z,1.70
2018-08-31T13:10:15.959Z,1.72
2018-08-31T13:12:44.907Z,1.98
2018-08-31T13:15:13.746Z,2.00
2018-08-31T13:17:42.239Z,2.05
2018-08-31T13:20:10.659Z,2.15
2018-08-31T13:22:39.263Z,1.95
2018-08-31T13:25:07.795Z,1.90
2018-08-31T13:27:36.182Z,2.17
2018-08-31T13:30:05.225Z,2.10
2018-08-31T13:32:33.743Z,1.85
2018-08-31T13:35:02.825Z,1.80
2018-08-31T13:37:31.662Z,3.50
2018-08-31T13:39:59.955Z,3.27
2018-08-31T13:42:28.414Z,2.30
2018-08-31T13:44:56.873Z,2.10
2018-08-31T13:47:25.343Z,2.45
2018-08-31T13:49:53.944Z,2.10
2018-08-31T13:52:22.538Z,2.00
2018-08-31T13:54:51.126Z,2.00
2018-08-31T13:57:19.587Z,2.30
2018-08-31T13:59:48.118Z,2.47
2018-08-31T14:02:17.317Z,2.22
2018-08-31T14:04:45.808Z,3.05
2018-08-31T14:07:14.313Z,2.17
2018-08-31T14:09:42.734Z,1.75
2018-08-31T14:12:11.869Z,2.12
2018-08-31T14:14:40.327Z,2.42
2018-08-31T14:17:08.798Z,1.90
2018-08-31T14:19:37.891Z,2.10
2018-08-31T14:22:06.339Z,2.50
2018-08-31T14:24:34.826Z,2.20
2018-08-31T14:27:03.536Z,2.25
2018-08-31T14:29:32.031Z,2.40
2018-08-31T14:32:01.000Z,2.08
2018-08-31T14:34:29.470Z,2.02
2018-08-31T14:36:57.979Z,2.10
2018-08-31T14:39:26.587Z,2.30
2018-08-31T14:41:55.185Z,4.78
2018-08-31T14:44:23.776Z,3.62
2018-08-31T14:46:52.290Z,3.90
2018-08-31T14:49:20.864Z,3.20
2018-08-31T14:51:49.673Z,4.10
2018-08-31T14:54:18.239Z,2.98
2018-08-31T14:56:47.355Z,2.40
2018-08-31T14:59:16.268Z,3.80
2018-08-31T15:01:46.013Z,6.80
2018-08-31T15:04:16.612Z,2.70
2018-08-31T15:06:45.015Z,2.72
2018-08-31T15:09:14.297Z,1.98
2018-08-31T15:11:42.847Z,2.67
2018-08-31T15:14:11.353Z,2.50
2018-08-31T15:16:39.955Z,4.22
2018-08-31T15:19:08.560Z,2.60
2018-08-31T15:21:37.113Z,2.75
2018-08-31T15:24:05.711Z,2.90
2018-08-31T15:26:34.196Z,2.70
2018-08-31T15:29:02.778Z,2.98
2018-08-31T15:31:31.442Z,2.60
2018-08-31T15:34:00.023Z,4.35
2018-08-31T15:36:28.518Z,3.90
2018-08-31T15:38:57.193Z,2.47
2018-08-31T15:41:25.749Z,2.10
2018-08-31T15:43:54.364Z,2.87
2018-08-31T15:46:22.899Z,2.37
2018-08-31T15:48:51.557Z,2.72
2018-08-31T15:51:20.103Z,4.20
2018-08-31T15:53:48.598Z,6.92
2018-08-31T15:56:17.032Z,2.25
2018-08-31T15:58:45.521Z,2.42
2018-08-31T16:01:13.921Z,2.60
2018-08-31T16:03:42.429Z,2.50
2018-08-31T16:06:11.826Z,2.12
2018-08-31T16:08:40.303Z,2.30
2018-08-31T16:11:08.804Z,2.12
2018-08-31T16:13:37.291Z,2.52
2018-08-31T16:16:05.787Z,2.30
2018-08-31T16:18:34.343Z,2.25
2018-08-31T16:21:03.081Z,1.77
2018-08-31T16:23:31.486Z,2.25
2018-08-31T16:26:01.939Z,2.60
2018-08-31T16:28:31.618Z,2.30
2018-08-31T16:31:00.375Z,2.27
2018-08-31T16:33:29.153Z,2.15
2018-08-31T16:35:57.855Z,2.75
2018-08-31T16:38:26.434Z,2.30
2018-08-31T16:40:55.040Z,2.22
2018-08-31T16:43:23.610Z,1.92
2018-08-31T16:45:52.155Z,2.12
2018-08-31T16:48:20.699Z,2.05
2018-08-31T16:50:49.655Z,2.20
2018-08-31T16:53:18.242Z,2.27
2018-08-31T16:55:46.866Z,2.10
2018-08-31T16:58:15.438Z,2.42
2018-08-31T17:00:43.994Z,2.25
2018-08-31T17:03:12.565Z,2.25
2018-08-31T17:05:41.743Z,2.37
2018-08-31T17:08:10.223Z,2.25
2018-08-31T17:10:38.680Z,2.37
2018-08-31T17:13:07.601Z,2.47
2018-08-31T17:15:36.310Z,2.12
2018-08-31T17:18:04.975Z,2.17
2018-08-31T17:20:33.530Z,2.35
2018-08-31T17:23:02.036Z,2.15
2018-08-31T17:25:30.624Z,2.12
2018-08-31T17:28:04.680Z,2.37
2018-08-31T17:30:34.213Z,2.37
2018-08-31T17:33:07.960Z,2.67
2018-08-31T17:35:41.700Z,2.55
2018-08-31T17:38:10.804Z,2.12
2018-08-31T17:43:17.869Z,1.90
2018-08-31T17:45:47.277Z,2.10
2018-08-31T17:48:17.464Z,2.12
2018-08-31T17:50:50.699Z,1.85
2018-08-31T17:53:19.296Z,2.40
2018-08-31T17:55:47.843Z,2.62
2018-08-31T17:58:16.740Z,2.22
2018-08-31T18:00:45.146Z,2.40
2018-08-31T18:03:13.621Z,2.58
2018-08-31T18:05:42.159Z,2.77
2018-08-31T18:08:10.721Z,2.90
2018-08-31T18:10:39.894Z,2.55
2018-08-31T18:13:08.485Z,3.17
2018-08-31T18:15:37.032Z,3.20
2018-08-31T18:18:05.732Z,2.60
2018-08-31T18:20:39.551Z,3.00
2018-08-31T18:23:08.046Z,3.10
2018-08-31T18:25:36.574Z,2.55
2018-08-31T18:28:05.276Z,2.95
2018-08-31T18:30:34.349Z,3.00
2018-08-31T18:33:05.240Z,2.70
2018-08-31T18:35:34.797Z,3.25
2018-08-31T18:38:03.380Z,2.60
2018-08-31T18:40:31.920Z,2.92
2018-08-31T18:43:00.510Z,3.27
2018-08-31T18:45:29.084Z,3.15
2018-08-31T18:47:57.719Z,3.30
2018-08-31T18:50:31.318Z,3.30
2018-08-31T18:52:59.948Z,3.50
2018-08-31T18:55:28.773Z,3.30
2018-08-31T18:57:57.223Z,3.20
2018-08-31T19:00:39.326Z,3.33
2018-08-31T19:03:07.789Z,4.15
2018-08-31T19:05:36.347Z,3.83
2018-08-31T19:08:04.916Z,3.40
2018-08-31T19:10:47.100Z,3.37
2018-08-31T19:13:16.307Z,3.65
2018-08-31T19:15:44.755Z,3.55
2018-08-31T19:18:13.702Z,3.83
2018-08-31T19:20:42.275Z,4.25
2018-08-31T19:23:10.996Z,3.60
2018-08-31T19:25:39.672Z,3.08
2018-08-31T19:28:08.087Z,3.27
2018-08-31T19:30:37.029Z,3.62
2018-08-31T19:33:05.590Z,3.35
2018-08-31T19:35:34.129Z,3.87
2018-08-31T19:38:03.218Z,3.58
2018-08-31T19:40:31.780Z,3.20
2018-08-31T19:43:00.397Z,3.80
2018-08-31T19:45:29.040Z,3.70
2018-08-31T19:47:57.508Z,3.72
2018-08-31T19:50:26.121Z,3.95
2018-08-31T19:52:54.683Z,3.83
2018-08-31T19:55:23.109Z,3.77
2018-08-31T19:57:51.671Z,3.47
2018-08-31T20:00:20.228Z,4.08
2018-08-31T20:02:48.863Z,3.20
2018-08-31T20:05:17.646Z,3.80
2018-08-31T20:07:46.221Z,3.67
2018-08-31T20:10:15.117Z,3.62
2018-08-31T20:12:44.466Z,3.55
2018-08-31T20:15:12.984Z,3.60
2018-08-31T20:17:41.518Z,3.50
2018-08-31T20:20:10.102Z,3.70
2018-08-31T20:22:38.559Z,4.05
2018-08-31T20:25:07.239Z,3.67
2018-08-31T20:27:36.472Z,4.12
2018-08-31T20:30:05.096Z,3.90
2018-08-31T20:32:34.551Z,3.60
2018-08-31T20:35:03.192Z,3.83
2018-08-31T20:37:31.669Z,4.03
2018-08-31T20:40:00.163Z,3.62
2018-08-31T20:42:28.652Z,4.10
2018-08-31T20:44:57.333Z,4.03
2018-08-31T20:47:25.880Z,4.42
2018-08-31T20:49:54.707Z,3.87
2018-08-31T20:52:23.190Z,3.85
2018-08-31T20:54:51.911Z,4.22
2018-08-31T20:57:20.459Z,3.58
2018-08-31T20:59:49.220Z,4.22
2018-08-31T21:02:17.708Z,4.50
2018-08-31T21:04:46.238Z,4.85
2018-08-31T21:07:14.789Z,4.83
2018-08-31T21:09:43.257Z,4.00
2018-08-31T21:12:11.894Z,4.53
2018-08-31T21:14:40.729Z,4.25
2018-08-31T21:17:09.671Z,4.15
2018-08-31T21:19:38.686Z,4.40
2018-08-31T21:22:07.301Z,4.22
2018-08-31T21:24:35.889Z,4.20
2018-08-31T21:27:04.718Z,4.40
2018-08-31T21:29:33.328Z,4.05
2018-08-31T21:32:01.923Z,4.20
2018-08-31T21:34:30.378Z,4.10
2018-08-31T21:36:58.845Z,4.33
2018-08-31T21:39:27.246Z,4.15
2018-08-31T21:41:55.719Z,3.92
2018-08-31T21:44:24.166Z,3.77
2018-08-31T21:46:52.719Z,3.77
2018-08-31T21:49:21.158Z,3.95
2018-08-31T21:51:49.551Z,3.72
2018-08-31T21:54:18.027Z,3.52
2018-08-31T21:56:46.544Z,4.03
2018-08-31T21:59:15.009Z,3.60
2018-08-31T22:01:47.735Z,3.87
2018-08-31T22:04:16.179Z,3.55
2018-08-31T22:06:45.441Z,3.27
2018-08-31T22:09:13.852Z,3.62
2018-08-31T22:11:42.431Z,4.05
2018-08-31T22:14:10.956Z,3.58
2018-08-31T22:16:40.554Z,3.60
2018-08-31T22:19:08.957Z,3.50
2018-08-31T22:21:37.381Z,4.05
2018-08-31T22:24:05.821Z,3.30
2018-08-31T22:26:34.306Z,4.28
2018-08-31T22:29:03.025Z,4.20
2018-08-31T22:31:31.575Z,3.70
2018-08-31T22:33:59.992Z,3.70
2018-08-31T22:36:28.443Z,4.20
2018-08-31T22:38:57.065Z,4.00
2018-08-31T22:41:25.572Z,4.10
2018-08-31T22:43:54.128Z,4.03
2018-08-31T22:46:23.701Z,3.72
2018-08-31T22:48:52.637Z,3.50
2018-08-31T22:51:22.016Z,3.67
2018-08-31T22:53:50.822Z,3.80
2018-08-31T22:56:19.537Z,3.80
2018-08-31T22:58:47.984Z,3.77
2018-08-31T23:01:16.843Z,3.58
2018-08-31T23:03:45.633Z,3.50
2018-08-31T23:06:14.453Z,3.67
2018-08-31T23:08:43.335Z,3.60
2018-08-31T23:11:12.567Z,3.72
2018-08-31T23:13:43.024Z,3.37
2018-08-31T23:16:11.563Z,3.60
2018-08-31T23:18:40.471Z,3.67
2018-08-31T23:21:09.628Z,3.43
2018-08-31T23:23:43.371Z,4.07
2018-08-31T23:26:12.111Z,3.37
2018-08-31T23:28:40.643Z,3.60
2018-08-31T23:31:11.195Z,3.70
2018-08-31T23:33:39.796Z,3.80
2018-08-31T23:36:08.382Z,3.30
2018-08-31T23:38:36.972Z,3.70
2018-08-31T23:41:05.804Z,3.22
2018-08-31T23:43:34.516Z,3.37
2018-08-31T23:46:03.153Z,3.50
2018-08-31T23:48:31.944Z,3.58
2018-08-31T23:51:00.773Z,3.20
2018-08-31T23:53:30.363Z,3.45
2018-08-31T23:55:59.530Z,3.52
2018-08-31T23:58:28.246Z,3.58
